createdAt,value
2022-11-15T00:00:44.681Z,987.11
2022-11-15T00:01:44.726Z,987.09
2022-11-15T00:02:44.700Z,987.13
2022-11-15T00:03:44.685Z,987.16
2022-11-15T00:04:44.642Z,987.13
2022-11-15T00:05:44.643Z,987.13
2022-11-15T00:06:44.723Z,987.20
2022-11-15T00:07:56.698Z,987.16
2022-11-15T00:08:46.767Z,987.09
2022-11-15T00:09:46.191Z,987.12
2022-11-15T00:10:44.620Z,987.08
2022-11-15T00:11:44.599Z,987.06
2022-11-15T00:12:44.627Z,987.11
2022-11-15T00:13:44.630Z,987.09
2022-11-15T00:14:44.712Z,987.07
2022-11-15T00:15:44.621Z,987.04
2022-11-15T00:16:44.636Z,986.93
2022-11-15T00:17:44.563Z,986.94
2022-11-15T00:18:50.252Z,986.96
2022-11-15T00:19:46.579Z,986.97
2022-11-15T00:20:44.565Z,987.06
2022-11-15T00:21:44.549Z,987.02
2022-11-15T00:22:44.549Z,986.99
2022-11-15T00:23:44.558Z,986.97
2022-11-15T00:24:44.545Z,987.02
2022-11-15T00:25:44.542Z,986.94
2022-11-15T00:26:44.558Z,986.96
2022-11-15T00:27:44.508Z,986.98
2022-11-15T00:28:44.517Z,986.89
2022-11-15T00:29:44.542Z,986.95
2022-11-15T00:30:44.616Z,987.01
2022-11-15T00:31:44.478Z,987.03
2022-11-15T00:32:44.505Z,987.04
2022-11-15T00:33:44.529Z,987.09
2022-11-15T00:34:44.502Z,987.06
2022-11-15T00:35:44.476Z,987.05
2022-11-15T00:36:44.449Z,987.03
2022-11-15T00:37:44.460Z,987.02
2022-11-15T00:38:44.499Z,987.07
2022-11-15T00:39:44.472Z,987.01
2022-11-15T00:40:44.456Z,987.00
2022-11-15T00:41:45.434Z,987.00
2022-11-15T00:42:44.435Z,986.97
2022-11-15T00:43:45.122Z,987.03
2022-11-15T00:44:44.441Z,986.96
2022-11-15T00:45:44.425Z,986.96
2022-11-15T00:46:44.419Z,987.01
2022-11-15T00:47:44.392Z,986.95
2022-11-15T00:48:44.406Z,986.93
2022-11-15T00:49:44.427Z,986.90
2022-11-15T00:50:44.400Z,986.86
2022-11-15T00:51:44.384Z,986.90
2022-11-15T00:52:44.393Z,986.90
2022-11-15T00:53:44.384Z,986.86
2022-11-15T00:54:44.394Z,986.87
2022-11-15T00:55:44.362Z,986.93
2022-11-15T00:56:44.330Z,986.92
2022-11-15T00:57:44.376Z,986.97
2022-11-15T00:58:44.324Z,986.96
2022-11-15T00:59:44.376Z,986.93
2022-11-15T01:00:44.401Z,986.91
2022-11-15T01:01:44.304Z,986.93
2022-11-15T01:02:44.345Z,986.91
2022-11-15T01:03:44.293Z,986.92
2022-11-15T01:04:47.596Z,986.87
2022-11-15T01:05:44.333Z,986.92
2022-11-15T01:06:44.396Z,986.93
2022-11-15T01:07:44.403Z,986.98
2022-11-15T01:08:44.289Z,987.02
2022-11-15T01:09:44.260Z,986.99
2022-11-15T01:10:44.308Z,986.96
2022-11-15T01:11:44.274Z,986.98
2022-11-15T01:12:44.260Z,986.94
2022-11-15T01:13:44.249Z,986.91
2022-11-15T01:14:45.332Z,986.98
2022-11-15T01:15:44.377Z,987.01
2022-11-15T01:16:44.222Z,986.96
2022-11-15T01:17:44.250Z,986.96
2022-11-15T01:18:44.254Z,986.95
2022-11-15T01:19:44.202Z,986.88
2022-11-15T01:20:44.241Z,986.84
2022-11-15T01:21:44.262Z,986.85
2022-11-15T01:22:44.213Z,986.83
2022-11-15T01:23:44.197Z,986.85
2022-11-15T01:24:44.214Z,986.80
2022-11-15T01:25:44.156Z,986.77
2022-11-15T01:26:44.198Z,986.78
2022-11-15T01:27:44.220Z,986.80
2022-11-15T01:28:44.184Z,986.84
2022-11-15T01:29:44.146Z,986.86
2022-11-15T01:30:44.139Z,986.72
2022-11-15T01:31:44.166Z,986.75
2022-11-15T01:32:44.170Z,986.70
2022-11-15T01:33:44.122Z,986.80
2022-11-15T01:34:44.130Z,986.76
2022-11-15T01:35:44.175Z,986.75
2022-11-15T01:36:44.118Z,986.74
2022-11-15T01:37:44.557Z,986.71
2022-11-15T01:38:44.121Z,986.74
2022-11-15T01:39:44.123Z,986.76
2022-11-15T01:40:44.089Z,986.75
2022-11-15T01:41:44.090Z,986.79
2022-11-15T01:42:44.062Z,986.74
2022-11-15T01:43:44.174Z,986.69
2022-11-15T01:44:44.073Z,986.71
2022-11-15T01:45:44.115Z,986.72
2022-11-15T01:46:44.043Z,986.70
2022-11-15T01:47:44.022Z,986.75
2022-11-15T01:48:44.103Z,986.71
2022-11-15T01:49:44.042Z,986.71
2022-11-15T01:50:44.034Z,986.63
2022-11-15T01:51:44.023Z,986.63
2022-11-15T01:52:44.031Z,986.63
2022-11-15T01:53:44.006Z,986.60
2022-11-15T01:54:44.129Z,986.60
2022-11-15T01:55:43.986Z,986.59
2022-11-15T01:56:44.018Z,986.62
2022-11-15T01:57:44.019Z,986.49
2022-11-15T01:58:44.015Z,986.52
2022-11-15T01:59:44.057Z,986.51
2022-11-15T02:00:44.013Z,986.55
2022-11-15T02:01:43.933Z,986.52
2022-11-15T02:02:44.954Z,986.50
2022-11-15T02:03:43.950Z,986.48
2022-11-15T02:04:43.977Z,986.49
2022-11-15T02:05:43.968Z,986.50
2022-11-15T02:06:43.915Z,986.52
2022-11-15T02:07:43.916Z,986.49
2022-11-15T02:08:43.923Z,986.50
2022-11-15T02:09:43.919Z,986.47
2022-11-15T02:10:43.917Z,986.47
2022-11-15T02:11:43.893Z,986.54
2022-11-15T02:12:43.908Z,986.52
2022-11-15T02:13:43.878Z,986.45
2022-11-15T02:14:43.859Z,986.46
2022-11-15T02:15:43.876Z,986.43
2022-11-15T02:16:43.887Z,986.35
2022-11-15T02:17:43.860Z,986.38
2022-11-15T02:18:43.970Z,986.40
2022-11-15T02:19:43.835Z,986.40
2022-11-15T02:20:43.853Z,986.34
2022-11-15T02:21:43.874Z,986.40
2022-11-15T02:22:43.829Z,986.44
2022-11-15T02:23:43.804Z,986.38
2022-11-15T02:24:43.803Z,986.38
2022-11-15T02:25:43.817Z,986.36
2022-11-15T02:26:43.829Z,986.27
2022-11-15T02:27:43.815Z,986.28
2022-11-15T02:28:43.772Z,986.29
2022-11-15T02:29:43.772Z,986.30
2022-11-15T02:30:43.792Z,986.28
2022-11-15T02:31:43.787Z,986.32
2022-11-15T02:32:43.871Z,986.28
2022-11-15T02:33:43.733Z,986.32
2022-11-15T02:34:44.734Z,986.31
2022-11-15T02:35:43.730Z,986.31
2022-11-15T02:36:43.752Z,986.29
2022-11-15T02:37:43.723Z,986.29
2022-11-15T02:38:43.854Z,986.23
2022-11-15T02:39:43.713Z,986.29
2022-11-15T02:40:43.704Z,986.22
2022-11-15T02:41:43.690Z,986.25
2022-11-15T02:42:43.684Z,986.23
2022-11-15T02:43:43.735Z,986.21
2022-11-15T02:44:43.713Z,986.18
2022-11-15T02:45:43.698Z,986.16
2022-11-15T02:46:43.687Z,986.20
2022-11-15T02:47:43.668Z,986.20
2022-11-15T02:48:43.667Z,986.19
2022-11-15T02:49:43.660Z,986.22
2022-11-15T02:50:43.663Z,986.15
2022-11-15T02:51:43.637Z,986.16
2022-11-15T02:52:43.649Z,986.17
2022-11-15T02:53:43.638Z,986.12
2022-11-15T02:54:43.678Z,986.13
2022-11-15T02:55:43.615Z,986.13
2022-11-15T02:56:43.614Z,986.16
2022-11-15T02:57:43.585Z,986.21
2022-11-15T02:58:43.602Z,986.07
2022-11-15T02:59:43.580Z,986.12
2022-11-15T03:00:43.717Z,986.09
2022-11-15T03:01:43.594Z,986.05
2022-11-15T03:02:43.574Z,986.09
2022-11-15T03:03:43.576Z,986.14
2022-11-15T03:04:43.585Z,986.10
2022-11-15T03:05:43.572Z,986.09
2022-11-15T03:06:43.561Z,986.04
2022-11-15T03:07:43.514Z,986.07
2022-11-15T03:08:43.516Z,986.03
2022-11-15T03:09:43.551Z,985.99
2022-11-15T03:10:43.547Z,986.05
2022-11-15T03:11:43.507Z,985.99
2022-11-15T03:12:43.506Z,986.04
2022-11-15T03:13:43.498Z,986.01
2022-11-15T03:14:43.505Z,986.03
2022-11-15T03:15:43.458Z,986.02
2022-11-15T03:16:43.613Z,985.98
2022-11-15T03:17:43.450Z,985.98
2022-11-15T03:18:43.491Z,985.98
2022-11-15T03:19:43.454Z,986.02
2022-11-15T03:20:43.463Z,985.98
2022-11-15T03:21:43.464Z,985.98
2022-11-15T03:22:43.470Z,985.93
2022-11-15T03:23:43.467Z,985.99
2022-11-15T03:24:43.406Z,985.95
2022-11-15T03:25:43.398Z,985.93
2022-11-15T03:26:43.390Z,985.96
2022-11-15T03:27:43.416Z,985.94
2022-11-15T03:28:43.392Z,985.94
2022-11-15T03:29:43.395Z,985.89
2022-11-15T03:30:43.385Z,985.88
2022-11-15T03:31:48.597Z,985.91
2022-11-15T03:32:44.392Z,985.89
2022-11-15T03:33:43.356Z,985.92
2022-11-15T03:34:43.351Z,985.91
2022-11-15T03:35:43.334Z,985.91
2022-11-15T03:36:43.334Z,985.91
2022-11-15T03:37:43.335Z,985.93
2022-11-15T03:38:43.519Z,985.96
2022-11-15T03:39:43.335Z,985.95
2022-11-15T03:40:43.309Z,985.94
2022-11-15T03:41:43.299Z,985.96
2022-11-15T03:42:43.314Z,986.05
2022-11-15T03:43:43.403Z,986.06
2022-11-15T03:44:43.300Z,986.08
2022-11-15T03:45:43.290Z,986.10
2022-11-15T03:46:43.268Z,986.05
2022-11-15T03:47:43.278Z,986.04
2022-11-15T03:48:43.279Z,986.07
2022-11-15T03:49:43.261Z,986.03
2022-11-15T03:50:43.244Z,986.00
2022-11-15T03:51:43.230Z,985.99
2022-11-15T03:52:43.222Z,985.95
2022-11-15T03:53:43.252Z,986.00
2022-11-15T03:54:43.247Z,985.99
2022-11-15T03:55:43.232Z,985.97
2022-11-15T03:56:43.226Z,986.01
2022-11-15T03:57:43.198Z,986.04
2022-11-15T03:58:43.192Z,986.04
2022-11-15T03:59:43.190Z,986.00
2022-11-15T04:00:43.316Z,985.99
2022-11-15T04:01:43.236Z,986.01
2022-11-15T04:02:43.148Z,986.01
2022-11-15T04:03:43.162Z,986.03
2022-11-15T04:04:43.176Z,986.03
2022-11-15T04:05:43.276Z,986.07
2022-11-15T04:06:43.145Z,986.10
2022-11-15T04:07:43.162Z,986.07
2022-11-15T04:08:43.999Z,986.04
2022-11-15T04:09:43.155Z,986.05
2022-11-15T04:10:43.134Z,986.05
2022-11-15T04:11:43.380Z,986.12
2022-11-15T04:12:43.093Z,986.07
2022-11-15T04:13:43.078Z,986.03
2022-11-15T04:14:43.077Z,985.97
2022-11-15T04:15:43.084Z,986.02
2022-11-15T04:16:44.197Z,985.95
2022-11-15T04:17:44.081Z,986.10
2022-11-15T04:18:43.065Z,985.97
2022-11-15T04:19:43.051Z,985.99
2022-11-15T04:20:43.047Z,986.07
2022-11-15T04:21:43.015Z,986.05
2022-11-15T04:22:43.151Z,986.04
2022-11-15T04:23:43.021Z,986.08
2022-11-15T04:24:43.017Z,985.98
2022-11-15T04:25:43.033Z,986.03
2022-11-15T04:26:42.994Z,986.00
2022-11-15T04:27:43.004Z,986.09
2022-11-15T04:28:42.997Z,986.04
2022-11-15T04:29:42.988Z,986.00
2022-11-15T04:30:43.006Z,986.00
2022-11-15T04:31:43.002Z,985.95
2022-11-15T04:32:42.969Z,985.94
2022-11-15T04:33:43.095Z,985.98
2022-11-15T04:34:42.993Z,985.93
2022-11-15T04:35:42.941Z,985.94
2022-11-15T04:36:42.973Z,985.89
2022-11-15T04:37:48.959Z,985.93
2022-11-15T04:38:45.051Z,985.83
2022-11-15T04:39:42.916Z,985.91
2022-11-15T04:40:42.968Z,985.86
2022-11-15T04:41:42.919Z,985.86
2022-11-15T04:42:43.058Z,985.88
2022-11-15T04:43:42.903Z,985.82
2022-11-15T04:44:42.985Z,985.79
2022-11-15T04:45:42.877Z,985.82
2022-11-15T04:46:42.867Z,985.78
2022-11-15T04:47:42.891Z,985.84
2022-11-15T04:48:42.868Z,985.78
2022-11-15T04:49:42.996Z,985.81
2022-11-15T04:50:42.870Z,985.75
2022-11-15T04:51:42.813Z,985.70
2022-11-15T04:52:42.839Z,985.66
2022-11-15T04:53:42.819Z,985.69
2022-11-15T04:54:42.827Z,985.69
2022-11-15T04:55:42.848Z,985.69
2022-11-15T04:56:42.847Z,985.70
2022-11-15T04:57:42.807Z,985.65
2022-11-15T04:58:42.817Z,985.67
2022-11-15T04:59:42.781Z,985.62
2022-11-15T05:00:42.864Z,985.68
2022-11-15T05:01:45.140Z,985.70
2022-11-15T05:02:43.776Z,985.69
2022-11-15T05:03:42.751Z,985.69
2022-11-15T05:04:42.758Z,985.72
2022-11-15T05:05:42.742Z,985.75
2022-11-15T05:06:42.776Z,985.72
2022-11-15T05:07:42.787Z,985.67
2022-11-15T05:08:42.719Z,985.68
2022-11-15T05:09:42.737Z,985.76
2022-11-15T05:10:42.698Z,985.81
2022-11-15T05:11:42.752Z,985.76
2022-11-15T05:12:42.688Z,985.77
2022-11-15T05:13:42.715Z,985.73
2022-11-15T05:14:42.684Z,985.72
2022-11-15T05:15:42.663Z,985.71
2022-11-15T05:16:42.669Z,985.82
2022-11-15T05:17:42.746Z,985.83
2022-11-15T05:18:42.667Z,985.76
2022-11-15T05:19:42.677Z,985.81
2022-11-15T05:20:42.629Z,985.82
2022-11-15T05:21:42.643Z,985.80
2022-11-15T05:22:42.847Z,985.81
2022-11-15T05:23:42.635Z,985.82
2022-11-15T05:24:42.612Z,985.83
2022-11-15T05:25:42.627Z,985.87
2022-11-15T05:26:42.588Z,985.84
2022-11-15T05:27:42.601Z,985.85
2022-11-15T05:28:42.623Z,985.84
2022-11-15T05:29:42.567Z,985.90
2022-11-15T05:30:42.563Z,985.86
2022-11-15T05:31:42.554Z,985.83
2022-11-15T05:32:42.584Z,985.81
2022-11-15T05:33:42.631Z,985.81
2022-11-15T05:34:42.551Z,985.77
2022-11-15T05:35:42.543Z,985.89
2022-11-15T05:36:42.550Z,985.86
2022-11-15T05:37:42.565Z,985.85
2022-11-15T05:38:42.534Z,985.87
2022-11-15T05:39:42.724Z,985.85
2022-11-15T05:40:42.525Z,985.87
2022-11-15T05:41:42.502Z,985.87
2022-11-15T05:42:42.495Z,985.90
2022-11-15T05:43:42.479Z,985.87
2022-11-15T05:44:42.602Z,985.96
2022-11-15T05:45:42.479Z,985.93
2022-11-15T05:46:42.496Z,985.89
2022-11-15T05:47:42.478Z,985.94
2022-11-15T05:48:42.477Z,985.95
2022-11-15T05:49:42.441Z,985.93
2022-11-15T05:50:42.569Z,985.91
2022-11-15T05:51:42.442Z,985.99
2022-11-15T05:52:42.440Z,985.91
2022-11-15T05:53:42.433Z,985.94
2022-11-15T05:54:42.402Z,985.95
2022-11-15T05:55:42.451Z,985.96
2022-11-15T05:56:42.409Z,985.98
2022-11-15T05:57:42.399Z,985.97
2022-11-15T05:58:42.427Z,985.94
2022-11-15T05:59:42.412Z,985.91
2022-11-15T06:00:42.367Z,985.97
2022-11-15T06:01:42.448Z,985.97
2022-11-15T06:02:42.370Z,985.91
2022-11-15T06:03:42.359Z,985.93
2022-11-15T06:04:42.365Z,985.95
2022-11-15T06:05:42.375Z,985.95
2022-11-15T06:06:42.454Z,985.92
2022-11-15T06:07:42.318Z,985.90
2022-11-15T06:08:42.372Z,985.92
2022-11-15T06:09:42.311Z,985.93
2022-11-15T06:10:42.328Z,985.89
2022-11-15T06:11:42.329Z,985.92
2022-11-15T06:12:42.336Z,986.00
2022-11-15T06:13:42.285Z,985.96
2022-11-15T06:14:42.292Z,985.90
2022-11-15T06:15:42.277Z,985.91
2022-11-15T06:16:42.272Z,985.95
2022-11-15T06:17:42.507Z,985.86
2022-11-15T06:18:42.267Z,985.90
2022-11-15T06:19:42.244Z,985.93
2022-11-15T06:20:42.236Z,985.95
2022-11-15T06:21:42.258Z,985.93
2022-11-15T06:22:42.263Z,985.93
2022-11-15T06:23:42.301Z,985.93
2022-11-15T06:24:42.243Z,985.92
2022-11-15T06:25:42.235Z,985.97
2022-11-15T06:26:42.194Z,985.94
2022-11-15T06:27:42.183Z,986.03
2022-11-15T06:28:42.640Z,985.95
2022-11-15T06:29:42.190Z,985.98
2022-11-15T06:30:42.199Z,986.01
2022-11-15T06:31:42.197Z,986.04
2022-11-15T06:32:42.183Z,986.08
2022-11-15T06:33:42.152Z,986.09
2022-11-15T06:34:42.195Z,986.05
2022-11-15T06:35:42.142Z,986.09
2022-11-15T06:36:42.137Z,986.10
2022-11-15T06:37:42.142Z,986.09
2022-11-15T06:39:10.600Z,986.04
2022-11-15T06:40:10.657Z,986.06
2022-11-15T06:41:11.707Z,986.10
2022-11-15T06:42:11.716Z,986.03
2022-11-15T06:43:11.720Z,986.00
2022-11-15T06:44:11.714Z,986.04
2022-11-15T06:45:11.838Z,986.00
2022-11-15T06:46:11.683Z,985.98
2022-11-15T06:47:11.673Z,985.97
2022-11-15T06:48:11.691Z,985.94
2022-11-15T06:49:11.667Z,985.96
2022-11-15T06:50:11.691Z,985.91
2022-11-15T06:51:11.705Z,985.94
2022-11-15T06:52:11.714Z,985.93
2022-11-15T06:53:11.658Z,985.84
2022-11-15T06:54:11.644Z,985.83
2022-11-15T06:55:11.637Z,985.85
2022-11-15T06:56:11.773Z,985.81
2022-11-15T06:57:11.617Z,985.85
2022-11-15T06:58:11.618Z,985.89
2022-11-15T06:59:11.627Z,985.87
2022-11-15T07:00:11.625Z,985.86
2022-11-15T07:01:11.678Z,985.85
2022-11-15T07:02:11.632Z,985.91
2022-11-15T07:03:11.573Z,985.87
2022-11-15T07:04:11.561Z,985.88
2022-11-15T07:05:11.556Z,985.88
2022-11-15T07:06:11.549Z,985.90
2022-11-15T07:07:11.752Z,985.90
2022-11-15T07:08:11.598Z,985.86
2022-11-15T07:09:11.569Z,985.91
2022-11-15T07:10:11.548Z,985.91
2022-11-15T07:11:11.533Z,985.96
2022-11-15T07:12:11.519Z,985.99
2022-11-15T07:13:11.530Z,986.01
2022-11-15T07:14:11.552Z,986.05
2022-11-15T07:15:11.524Z,985.97
2022-11-15T07:16:11.499Z,985.93
2022-11-15T07:17:11.503Z,985.90
2022-11-15T07:18:11.585Z,986.02
2022-11-15T07:19:11.472Z,985.92
2022-11-15T07:20:11.447Z,985.97
2022-11-15T07:21:11.483Z,986.03
2022-11-15T07:22:11.452Z,986.05
2022-11-15T07:23:11.506Z,986.02
2022-11-15T07:24:11.454Z,986.02
2022-11-15T07:25:11.440Z,986.05
2022-11-15T07:26:11.416Z,986.04
2022-11-15T07:27:11.442Z,986.05
2022-11-15T07:28:11.415Z,986.06
2022-11-15T07:29:11.449Z,986.04
2022-11-15T07:30:11.427Z,986.09
2022-11-15T07:31:11.401Z,986.10
2022-11-15T07:32:11.395Z,986.14
2022-11-15T07:33:11.387Z,986.09
2022-11-15T07:34:11.356Z,986.16
2022-11-15T07:35:11.405Z,986.15
2022-11-15T07:36:11.378Z,986.11
2022-11-15T07:37:11.377Z,986.12
2022-11-15T07:38:11.385Z,986.12
2022-11-15T07:39:11.377Z,986.15
2022-11-15T07:40:11.456Z,986.13
2022-11-15T07:41:11.328Z,986.03
2022-11-15T07:42:11.319Z,986.07
2022-11-15T07:43:11.328Z,986.10
2022-11-15T07:44:11.307Z,986.12
2022-11-15T07:45:11.335Z,986.12
2022-11-15T07:46:11.323Z,986.09
2022-11-15T07:47:11.277Z,986.08
2022-11-15T07:48:11.275Z,986.11
2022-11-15T07:49:11.258Z,986.09
2022-11-15T07:50:11.278Z,986.14
2022-11-15T07:51:14.024Z,986.07
2022-11-15T07:52:11.300Z,985.99
2022-11-15T07:53:11.263Z,985.99
2022-11-15T07:54:11.261Z,986.01
2022-11-15T07:55:11.256Z,985.94
2022-11-15T07:56:11.232Z,986.04
2022-11-15T07:57:11.364Z,986.00
2022-11-15T07:58:11.234Z,986.02
2022-11-15T07:59:11.286Z,986.01
2022-11-15T08:00:11.205Z,986.11
2022-11-15T08:01:11.378Z,986.00
2022-11-15T08:02:11.369Z,985.98
2022-11-15T08:03:11.203Z,986.05
2022-11-15T08:04:11.247Z,986.01
2022-11-15T08:05:11.183Z,985.97
2022-11-15T08:06:11.174Z,985.91
2022-11-15T08:07:11.235Z,985.94
2022-11-15T08:08:11.287Z,985.97
2022-11-15T08:09:11.145Z,985.77
2022-11-15T08:10:11.153Z,985.73
2022-11-15T08:11:11.125Z,985.71
2022-11-15T08:12:12.115Z,985.69
2022-11-15T08:13:11.182Z,985.68
2022-11-15T08:14:11.110Z,985.72
2022-11-15T08:15:11.098Z,985.64
2022-11-15T08:16:11.126Z,985.81
2022-11-15T08:17:11.121Z,985.76
2022-11-15T08:18:11.100Z,985.85
2022-11-15T08:19:11.163Z,985.73
2022-11-15T08:20:11.113Z,985.76
2022-11-15T08:21:14.220Z,985.72
2022-11-15T08:22:12.062Z,985.73
2022-11-15T08:23:11.082Z,985.76
2022-11-15T08:24:11.104Z,985.61
2022-11-15T08:25:11.090Z,985.68
2022-11-15T08:26:11.103Z,985.65
2022-11-15T08:27:11.064Z,985.71
2022-11-15T08:28:11.142Z,985.69
2022-11-15T08:29:11.063Z,985.71
2022-11-15T08:30:11.836Z,985.67
2022-11-15T08:31:11.034Z,985.64
2022-11-15T08:32:11.007Z,985.71
2022-11-15T08:33:10.992Z,985.67
2022-11-15T08:34:11.019Z,985.63
2022-11-15T08:35:11.008Z,985.70
2022-11-15T08:36:11.005Z,985.65
2022-11-15T08:37:10.978Z,985.70
2022-11-15T08:38:11.034Z,985.62
2022-11-15T08:39:10.969Z,985.56
2022-11-15T08:40:10.961Z,985.54
2022-11-15T08:41:11.099Z,985.48
2022-11-15T08:42:13.540Z,985.52
2022-11-15T08:43:11.926Z,985.58
2022-11-15T08:44:10.952Z,985.49
2022-11-15T08:45:10.940Z,985.50
2022-11-15T08:46:10.949Z,985.51
2022-11-15T08:47:10.922Z,985.48
2022-11-15T08:48:10.918Z,985.40
2022-11-15T08:49:10.889Z,985.42
2022-11-15T08:50:10.928Z,985.40
2022-11-15T08:51:11.884Z,985.37
2022-11-15T08:52:10.923Z,985.42
2022-11-15T08:53:10.876Z,985.43
2022-11-15T08:54:10.902Z,985.44
2022-11-15T08:55:10.893Z,985.48
2022-11-15T08:56:10.873Z,985.46
2022-11-15T08:57:10.891Z,985.36
2022-11-15T08:58:10.911Z,985.41
2022-11-15T08:59:10.857Z,985.42
2022-11-15T09:00:10.844Z,985.43
2022-11-15T09:01:12.871Z,985.40
2022-11-15T09:02:11.906Z,985.43
2022-11-15T09:03:10.865Z,985.41
2022-11-15T09:04:10.848Z,985.39
2022-11-15T09:05:10.803Z,985.32
2022-11-15T09:06:11.882Z,985.39
2022-11-15T09:07:10.838Z,985.37
2022-11-15T09:08:32.797Z,985.38
2022-11-15T09:09:11.772Z,985.34
2022-11-15T09:10:10.797Z,985.38
2022-11-15T09:11:10.757Z,985.35
2022-11-15T09:12:10.777Z,985.33
2022-11-15T09:13:10.889Z,985.35
2022-11-15T09:14:10.896Z,985.27
2022-11-15T09:15:10.779Z,985.25
2022-11-15T09:16:10.794Z,985.20
2022-11-15T09:17:10.733Z,985.20
2022-11-15T09:18:10.706Z,985.20
2022-11-15T09:19:12.081Z,985.11
2022-11-15T09:20:10.773Z,985.11
2022-11-15T09:21:10.749Z,985.13
2022-11-15T09:22:10.756Z,985.16
2022-11-15T09:23:10.724Z,985.16
2022-11-15T09:24:10.808Z,985.15
2022-11-15T09:25:11.340Z,985.13
2022-11-15T09:26:11.690Z,985.04
2022-11-15T09:27:10.664Z,985.13
2022-11-15T09:28:10.659Z,985.18
2022-11-15T09:29:10.671Z,985.11
2022-11-15T09:30:10.779Z,985.14
2022-11-15T09:31:10.640Z,985.17
2022-11-15T09:32:10.688Z,985.15
2022-11-15T09:33:10.637Z,985.13
2022-11-15T09:34:10.629Z,985.13
2022-11-15T09:35:10.639Z,985.12
2022-11-15T09:36:10.658Z,985.10
2022-11-15T09:37:10.631Z,985.12
2022-11-15T09:38:10.636Z,985.19
2022-11-15T09:39:10.608Z,985.16
2022-11-15T09:40:10.589Z,985.17
2022-11-15T09:41:11.649Z,985.17
2022-11-15T09:42:10.590Z,985.13
2022-11-15T09:43:10.594Z,985.25
2022-11-15T09:44:10.605Z,985.16
2022-11-15T09:45:10.605Z,985.27
2022-11-15T09:46:10.573Z,985.24
2022-11-15T09:47:10.577Z,985.27
2022-11-15T09:48:10.561Z,985.24
2022-11-15T09:49:10.563Z,985.08
2022-11-15T09:50:10.560Z,985.18
2022-11-15T09:51:10.575Z,985.27
2022-11-15T09:52:10.548Z,985.16
2022-11-15T09:53:10.547Z,985.14
2022-11-15T09:55:12.525Z,985.14
2022-11-15T09:56:10.554Z,985.02
2022-11-15T09:57:15.736Z,985.12
2022-11-15T09:58:12.490Z,985.14
2022-11-15T09:59:10.526Z,985.10
2022-11-15T10:01:12.548Z,985.12
2022-11-15T10:02:10.504Z,985.03
2022-11-15T10:03:10.486Z,985.06
2022-11-15T10:04:11.984Z,985.10
2022-11-15T10:05:11.479Z,985.08
2022-11-15T10:06:10.511Z,985.03
2022-11-15T10:07:10.597Z,985.02
2022-11-15T10:08:10.455Z,984.99
2022-11-15T10:09:10.453Z,984.92
2022-11-15T10:10:10.443Z,984.96
2022-11-15T10:11:36.172Z,984.96
2022-11-15T10:12:11.442Z,984.98
2022-11-15T10:13:10.466Z,985.03
2022-11-15T10:14:10.413Z,984.94
2022-11-15T10:15:10.414Z,984.97
2022-11-15T10:16:10.420Z,984.92
2022-11-15T10:17:10.418Z,984.94
2022-11-15T10:18:10.416Z,984.97
2022-11-15T10:19:10.388Z,984.92
2022-11-15T10:20:10.372Z,984.89
2022-11-15T10:21:10.389Z,984.85
2022-11-15T10:22:10.824Z,984.84
2022-11-15T10:23:10.379Z,984.79
2022-11-15T10:24:10.367Z,984.75
2022-11-15T10:25:10.363Z,984.79
2022-11-15T10:26:10.362Z,984.83
2022-11-15T10:27:10.376Z,984.78
2022-11-15T10:28:10.342Z,984.80
2022-11-15T10:29:10.332Z,984.76
2022-11-15T10:30:10.351Z,984.73
2022-11-15T10:31:14.302Z,984.72
2022-11-15T10:32:11.223Z,984.71
2022-11-15T10:33:10.358Z,984.70
2022-11-15T10:34:10.309Z,984.66
2022-11-15T10:35:10.321Z,984.69
2022-11-15T10:36:10.360Z,984.69
2022-11-15T10:37:10.315Z,984.66
2022-11-15T10:38:10.292Z,984.55
2022-11-15T10:39:10.290Z,984.53
2022-11-15T10:40:10.257Z,984.56
2022-11-15T10:41:10.253Z,984.57
2022-11-15T10:42:13.991Z,984.57
2022-11-15T10:43:11.261Z,984.46
2022-11-15T10:44:10.280Z,984.49
2022-11-15T10:45:10.264Z,984.48
2022-11-15T10:46:39.349Z,984.49
2022-11-15T10:47:11.272Z,984.51
2022-11-15T10:48:10.208Z,984.53
2022-11-15T10:49:10.221Z,984.50
2022-11-15T10:50:10.214Z,984.34
2022-11-15T10:51:10.231Z,984.30
2022-11-15T10:52:10.186Z,984.30
2022-11-15T10:53:10.327Z,984.27
2022-11-15T10:54:13.023Z,984.16
2022-11-15T10:55:11.202Z,984.19
2022-11-15T10:56:10.202Z,984.19
2022-11-15T10:57:10.195Z,984.23
2022-11-15T10:58:10.195Z,984.22
2022-11-15T10:59:10.209Z,984.20
2022-11-15T11:00:10.164Z,984.21
2022-11-15T11:01:10.218Z,984.28
2022-11-15T11:02:10.176Z,984.30
2022-11-15T11:03:10.155Z,984.17
2022-11-15T11:04:10.182Z,984.14
2022-11-15T11:05:10.168Z,984.15
2022-11-15T11:06:10.122Z,984.12
2022-11-15T11:07:10.146Z,984.17
2022-11-15T11:08:10.096Z,984.10
2022-11-15T11:09:10.246Z,984.04
2022-11-15T11:10:36.301Z,984.08
2022-11-15T11:11:11.124Z,983.99
2022-11-15T11:12:10.106Z,984.05
2022-11-15T11:13:10.141Z,983.98
2022-11-15T11:14:10.068Z,984.00
2022-11-15T11:15:10.111Z,983.97
2022-11-15T11:16:10.080Z,984.02
2022-11-15T11:17:10.068Z,983.98
2022-11-15T11:18:10.086Z,983.95
2022-11-15T11:19:10.051Z,983.94
2022-11-15T11:20:10.061Z,983.92
2022-11-15T11:21:10.080Z,983.91
2022-11-15T11:22:10.069Z,983.95
2022-11-15T11:23:10.020Z,983.95
2022-11-15T11:24:10.038Z,983.89
2022-11-15T11:25:10.010Z,983.89
2022-11-15T11:26:10.067Z,983.98
2022-11-15T11:27:09.997Z,983.95
2022-11-15T11:28:10.022Z,983.95
2022-11-15T11:29:09.970Z,983.90
2022-11-15T11:30:10.006Z,983.90
2022-11-15T11:31:09.991Z,983.88
2022-11-15T11:32:09.949Z,983.91
2022-11-15T11:33:09.961Z,983.95
2022-11-15T11:34:09.965Z,983.87
2022-11-15T11:35:09.968Z,983.86
2022-11-15T11:36:09.921Z,983.87
2022-11-15T11:37:10.057Z,983.87
2022-11-15T11:38:09.930Z,983.89
2022-11-15T11:39:09.935Z,983.86
2022-11-15T11:40:11.018Z,983.79
2022-11-15T11:41:10.912Z,983.86
2022-11-15T11:42:10.461Z,983.82
2022-11-15T11:43:09.940Z,983.84
2022-11-15T11:44:09.883Z,983.74
2022-11-15T11:45:09.898Z,983.76
2022-11-15T11:46:09.873Z,983.72
2022-11-15T11:47:09.915Z,983.70
2022-11-15T11:48:09.907Z,983.65
2022-11-15T11:49:10.875Z,983.64
2022-11-15T11:50:09.843Z,983.60
2022-11-15T11:51:09.853Z,983.62
2022-11-15T11:52:09.852Z,983.64
2022-11-15T11:53:09.957Z,983.62
2022-11-15T11:54:09.865Z,983.57
2022-11-15T11:55:09.830Z,983.60
2022-11-15T11:56:09.824Z,983.63
2022-11-15T11:57:10.840Z,983.64
2022-11-15T11:58:09.818Z,983.63
2022-11-15T11:59:09.875Z,983.59
2022-11-15T12:00:09.809Z,983.58
2022-11-15T12:01:12.688Z,983.61
2022-11-15T12:02:10.927Z,983.59
2022-11-15T12:03:09.914Z,983.61
2022-11-15T12:04:09.808Z,983.62
2022-11-15T12:05:09.818Z,983.61
2022-11-15T12:06:10.352Z,983.62
2022-11-15T12:07:09.826Z,983.52
2022-11-15T12:08:09.758Z,983.51
2022-11-15T12:09:09.747Z,983.52
2022-11-15T12:10:10.036Z,983.48
2022-11-15T12:11:09.716Z,983.43
2022-11-15T12:12:09.744Z,983.44
2022-11-15T12:13:09.730Z,983.43
2022-11-15T12:14:09.736Z,983.45
2022-11-15T12:15:09.746Z,983.47
2022-11-15T12:16:10.685Z,983.39
2022-11-15T12:17:10.724Z,983.45
2022-11-15T12:18:09.704Z,983.41
2022-11-15T12:19:09.706Z,983.41
2022-11-15T12:20:09.691Z,983.41
2022-11-15T12:21:09.717Z,983.35
2022-11-15T12:22:09.660Z,983.34
2022-11-15T12:23:10.485Z,983.36
2022-11-15T12:24:09.658Z,983.34
2022-11-15T12:25:09.630Z,983.32
2022-11-15T12:26:09.686Z,983.37
2022-11-15T12:27:09.625Z,983.32
2022-11-15T12:28:09.601Z,983.31
2022-11-15T12:29:09.639Z,983.36
2022-11-15T12:30:09.646Z,983.29
2022-11-15T12:31:09.608Z,983.26